createdAt,value
2022-12-23T00:00:28.321Z,1010.0
2022-12-23T00:15:24.038Z,1010.0
2022-12-23T00:30:24.138Z,1009.3
2022-12-23T00:45:24.068Z,1009.7
2022-12-23T01:00:32.044Z,1010.0
2022-12-23T01:15:23.931Z,1010.0
2022-12-23T01:30:24.305Z,1010.0
2022-12-23T01:45:24.245Z,1010.0
2022-12-23T02:00:26.967Z,1010.0
2022-12-23T02:15:24.455Z,1010.0
2022-12-23T02:30:34.155Z,1010.3
2022-12-23T02:45:33.409Z,1011.0
2022-12-23T03:00:37.747Z,1011.0
2022-12-23T03:15:23.183Z,1011.0
2022-12-23T03:30:23.363Z,1011.0
2022-12-23T03:45:40.493Z,1011.0
2022-12-23T04:00:29.509Z,1011.0
2022-12-23T04:15:23.436Z,1011.0
2022-12-23T04:30:26.752Z,1011.0
2022-12-23T04:45:23.419Z,1011.0
2022-12-23T05:00:37.156Z,1011.0
2022-12-23T05:15:23.526Z,1011.0
2022-12-23T05:30:23.532Z,1011.0
2022-12-23T05:45:23.816Z,1011.3
2022-12-23T06:00:27.602Z,1012.0
2022-12-23T06:15:23.681Z,1012.0
2022-12-23T06:30:23.804Z,1012.0
2022-12-23T06:45:23.803Z,1012.0
2022-12-23T07:00:25.477Z,1012.0
2022-12-23T07:15:23.659Z,1012.0
2022-12-23T07:30:23.852Z,1012.0
2022-12-23T07:45:23.811Z,1012.0
2022-12-23T08:00:38.171Z,1012.0
2022-12-23T08:15:23.687Z,1012.0
2022-12-23T13:37:58.269Z,1009.0
2022-12-23T13:50:14.026Z,1009.0
2022-12-23T14:05:16.799Z,1009.0
2022-12-23T14:15:24.551Z,1009.0
2022-12-23T14:30:28.115Z,1009.0
2022-12-23T14:45:33.656Z,1009.0
2022-12-23T15:00:37.667Z,1009.0
2022-12-23T15:15:22.997Z,1010.0
2022-12-23T15:30:23.156Z,1010.0
2022-12-23T15:45:23.287Z,1010.0
2022-12-23T16:00:23.698Z,1010.0
2022-12-23T16:15:23.039Z,1010.0
2022-12-23T16:30:23.215Z,1010.0
2022-12-23T16:45:23.327Z,1010.0
2022-12-23T17:00:38.216Z,1010.0
2022-12-23T17:15:23.182Z,1010.0
2022-12-23T17:30:23.233Z,1010.0
2022-12-23T17:45:23.416Z,1010.0
2022-12-23T18:00:33.989Z,1010.0
2022-12-23T18:15:23.531Z,1010.0
2022-12-23T18:30:31.072Z,1010.0
2022-12-23T18:45:23.468Z,1010.7
2022-12-23T19:00:25.491Z,1011.0
2022-12-23T19:15:23.657Z,1011.0
2022-12-23T19:30:24.169Z,1011.0
2022-12-23T19:45:23.741Z,1011.0
2022-12-23T20:00:36.531Z,1011.3
2022-12-23T20:15:24.480Z,1011.3
2022-12-23T20:30:25.209Z,1012.0
2022-12-23T20:45:23.809Z,1012.0
2022-12-23T21:00:25.529Z,1012.7
2022-12-23T21:15:23.916Z,1013.0
2022-12-23T21:30:23.794Z,1013.0
2022-12-23T21:45:23.620Z,1013.0
2022-12-23T22:00:24.325Z,1013.7
2022-12-23T22:15:23.927Z,1014.0
2022-12-23T22:30:23.845Z,1014.0
2022-12-23T22:45:23.993Z,1014.0
2022-12-23T23:03:07.928Z,1014.0
2022-12-23T23:15:23.872Z,1014.0
2022-12-23T23:30:23.900Z,1014.0
2022-12-23T23:45:24.012Z,1014.0
